sensor_id;sensor_type;location;lat;lon;timestamp;temperature;humidity
46898;DHT22;32646;50.958;6.258;2023-07-28T00:01:52;16.80;99.90
46898;DHT22;32646;50.958;6.258;2023-07-28T00:04:18;16.80;99.90
46898;DHT22;32646;50.958;6.258;2023-07-28T00:06:45;16.80;99.90
46898;DHT22;32646;50.958;6.258;2023-07-28T00:09:12;16.80;99.90
46898;DHT22;32646;50.958;6.258;2023-07-28T00:11:38;16.80;99.90
46898;DHT22;32646;50.958;6.258;2023-07-28T00:14:05;16.80;99.90
46898;DHT22;32646;50.958;6.258;2023-07-28T00:16:31;16.80;99.90
46898;DHT22;32646;50.958;6.258;2023-07-28T00:18:59;16.80;99.90
46898;DHT22;32646;50.958;6.258;2023-07-28T00:21:26;16.80;99.90
46898;DHT22;32646;50.958;6.258;2023-07-28T00:23:53;16.90;99.90
46898;DHT22;32646;50.958;6.258;2023-07-28T00:26:19;16.80;99.90
46898;DHT22;32646;50.958;6.258;2023-07-28T00:28:46;16.80;99.90
46898;DHT22;32646;50.958;6.258;2023-07-28T00:31:12;16.90;99.90
46898;DHT22;32646;50.958;6.258;2023-07-28T00:33:39;16.90;99.90
46898;DHT22;32646;50.958;6.258;2023-07-28T00:36:06;16.90;99.90
46898;DHT22;32646;50.958;6.258;2023-07-28T00:38:32;16.90;99.90
46898;DHT22;32646;50.958;6.258;2023-07-28T00:40:59;17.00;99.90
46898;DHT22;32646;50.958;6.258;2023-07-28T00:43:25;16.90;99.90
46898;DHT22;32646;50.958;6.258;2023-07-28T00:45:53;16.90;99.90
46898;DHT22;32646;50.958;6.258;2023-07-28T00:48:20;17.00;99.90
46898;DHT22;32646;50.958;6.258;2023-07-28T00:50:48;16.90;99.90
46898;DHT22;32646;50.958;6.258;2023-07-28T00:53:16;16.90;99.90
46898;DHT22;32646;50.958;6.258;2023-07-28T00:55:42;16.90;99.90
46898;DHT22;32646;50.958;6.258;2023-07-28T00:58:09;16.90;99.90
46898;DHT22;32646;50.958;6.258;2023-07-28T01:00:36;16.90;99.90
46898;DHT22;32646;50.958;6.258;2023-07-28T01:03:03;16.90;99.90
46898;DHT22;32646;50.958;6.258;2023-07-28T01:08:33;16.90;99.90
46898;DHT22;32646;50.958;6.258;2023-07-28T01:11:00;16.90;99.90
46898;DHT22;32646;50.958;6.258;2023-07-28T01:13:27;17.00;99.90
46898;DHT22;32646;50.958;6.258;2023-07-28T01:15:53;16.90;99.90
46898;DHT22;32646;50.958;6.258;2023-07-28T01:18:20;17.00;99.90
46898;DHT22;32646;50.958;6.258;2023-07-28T01:20:47;17.00;99.90
46898;DHT22;32646;50.958;6.258;2023-07-28T01:23:20;16.90;99.90
46898;DHT22;32646;50.958;6.258;2023-07-28T01:26:05;17.00;99.90
46898;DHT22;32646;50.958;6.258;2023-07-28T01:28:34;17.00;99.90
46898;DHT22;32646;50.958;6.258;2023-07-28T01:31:05;17.00;99.90
46898;DHT22;32646;50.958;6.258;2023-07-28T01:33:33;17.00;99.90
46898;DHT22;32646;50.958;6.258;2023-07-28T01:36:00;17.10;99.90
46898;DHT22;32646;50.958;6.258;2023-07-28T01:38:27;17.10;99.90
46898;DHT22;32646;50.958;6.258;2023-07-28T01:40:54;17.00;99.90
46898;DHT22;32646;50.958;6.258;2023-07-28T01:43:21;17.10;99.90
46898;DHT22;32646;50.958;6.258;2023-07-28T01:45:47;17.10;99.90
46898;DHT22;32646;50.958;6.258;2023-07-28T01:48:14;17.10;99.90
46898;DHT22;32646;50.958;6.258;2023-07-28T01:50:41;17.00;99.90
46898;DHT22;32646;50.958;6.258;2023-07-28T01:53:07;17.00;99.90
46898;DHT22;32646;50.958;6.258;2023-07-28T01:55:34;17.00;99.90
46898;DHT22;32646;50.958;6.258;2023-07-28T01:58:01;17.00;99.90
46898;DHT22;32646;50.958;6.258;2023-07-28T02:00:28;17.00;99.90
46898;DHT22;32646;50.958;6.258;2023-07-28T02:02:55;17.00;99.90
46898;DHT22;32646;50.958;6.258;2023-07-28T02:05:22;17.00;99.90
46898;DHT22;32646;50.958;6.258;2023-07-28T02:07:48;17.00;99.90
46898;DHT22;32646;50.958;6.258;2023-07-28T02:10:15;17.10;99.90
46898;DHT22;32646;50.958;6.258;2023-07-28T02:12:43;17.00;99.90
46898;DHT22;32646;50.958;6.258;2023-07-28T02:15:11;17.00;99.90
46898;DHT22;32646;50.958;6.258;2023-07-28T02:17:37;17.00;99.90
46898;DHT22;32646;50.958;6.258;2023-07-28T02:20:05;17.00;99.90
46898;DHT22;32646;50.958;6.258;2023-07-28T02:22:31;17.00;99.90
46898;DHT22;32646;50.958;6.258;2023-07-28T02:24:58;17.00;99.90
46898;DHT22;32646;50.958;6.258;2023-07-28T02:27:25;17.00;99.90
46898;DHT22;32646;50.958;6.258;2023-07-28T02:29:51;17.00;99.90
46898;DHT22;32646;50.958;6.258;2023-07-28T02:32:18;17.00;99.90
46898;DHT22;32646;50.958;6.258;2023-07-28T02:34:44;17.00;99.90
46898;DHT22;32646;50.958;6.258;2023-07-28T02:37:11;17.00;99.90
46898;DHT22;32646;50.958;6.258;2023-07-28T02:39:37;17.10;99.90
46898;DHT22;32646;50.958;6.258;2023-07-28T02:42:04;17.00;99.90
46898;DHT22;32646;50.958;6.258;2023-07-28T02:44:31;17.00;99.90
46898;DHT22;32646;50.958;6.258;2023-07-28T02:46:57;17.00;99.90
46898;DHT22;32646;50.958;6.258;2023-07-28T02:49:24;17.00;99.90
46898;DHT22;32646;50.958;6.258;2023-07-28T02:51:51;17.00;99.90
46898;DHT22;32646;50.958;6.258;2023-07-28T02:54:17;17.00;99.90
46898;DHT22;32646;50.958;6.258;2023-07-28T02:56:44;17.00;99.90
46898;DHT22;32646;50.958;6.258;2023-07-28T02:59:10;17.00;99.90
46898;DHT22;32646;50.958;6.258;2023-07-28T03:01:37;17.10;99.90
46898;DHT22;32646;50.958;6.258;2023-07-28T03:04:04;17.10;99.90
46898;DHT22;32646;50.958;6.258;2023-07-28T03:06:30;17.10;99.90
46898;DHT22;32646;50.958;6.258;2023-07-28T03:08:58;17.10;99.90
46898;DHT22;32646;50.958;6.258;2023-07-28T03:11:25;17.10;99.90
46898;DHT22;32646;50.958;6.258;2023-07-28T03:13:52;17.10;99.90
46898;DHT22;32646;50.958;6.258;2023-07-28T03:16:18;17.10;99.90
46898;DHT22;32646;50.958;6.258;2023-07-28T03:18:45;17.10;99.90
46898;DHT22;32646;50.958;6.258;2023-07-28T03:21:12;17.10;99.90
46898;DHT22;32646;50.958;6.258;2023-07-28T03:23:38;17.20;99.90
46898;DHT22;32646;50.958;6.258;2023-07-28T03:26:05;17.20;99.90
46898;DHT22;32646;50.958;6.258;2023-07-28T03:28:31;17.10;99.90
46898;DHT22;32646;50.958;6.258;2023-07-28T03:30:58;17.10;99.90
46898;DHT22;32646;50.958;6.258;2023-07-28T03:33:24;17.10;99.90
46898;DHT22;32646;50.958;6.258;2023-07-28T03:35:51;17.20;99.90
46898;DHT22;32646;50.958;6.258;2023-07-28T03:38:18;17.20;99.90
46898;DHT22;32646;50.958;6.258;2023-07-28T03:40:44;17.20;99.90
46898;DHT22;32646;50.958;6.258;2023-07-28T03:43:11;17.20;99.90
46898;DHT22;32646;50.958;6.258;2023-07-28T03:45:37;17.20;99.90
46898;DHT22;32646;50.958;6.258;2023-07-28T03:48:04;17.20;99.90
46898;DHT22;32646;50.958;6.258;2023-07-28T03:50:31;17.20;99.90
46898;DHT22;32646;50.958;6.258;2023-07-28T03:52:57;17.20;99.90
46898;DHT22;32646;50.958;6.258;2023-07-28T03:55:24;17.20;99.90
46898;DHT22;32646;50.958;6.258;2023-07-28T03:57:51;17.20;99.90
46898;DHT22;32646;50.958;6.258;2023-07-28T04:00:17;17.20;99.90
46898;DHT22;32646;50.958;6.258;2023-07-28T04:02:44;17.20;99.90
46898;DHT22;32646;50.958;6.258;2023-07-28T04:05:10;17.20;99.90
46898;DHT22;32646;50.958;6.258;2023-07-28T04:07:37;17.10;99.90
46898;DHT22;32646;50.958;6.258;2023-07-28T04:10:04;17.20;99.90
46898;DHT22;32646;50.958;6.258;2023-07-28T04:12:31;17.20;99.90
46898;DHT22;32646;50.958;6.258;2023-07-28T04:14:57;17.20;99.90
46898;DHT22;32646;50.958;6.258;2023-07-28T04:17:24;17.20;99.90
46898;DHT22;32646;50.958;6.258;2023-07-28T04:19:51;17.20;99.90
46898;DHT22;32646;50.958;6.258;2023-07-28T04:22:17;17.20;99.90
46898;DHT22;32646;50.958;6.258;2023-07-28T04:24:44;17.20;99.90
46898;DHT22;32646;50.958;6.258;2023-07-28T04:27:11;17.20;99.90
46898;DHT22;32646;50.958;6.258;2023-07-28T04:29:37;17.20;99.90
46898;DHT22;32646;50.958;6.258;2023-07-28T04:32:04;17.20;99.90
46898;DHT22;32646;50.958;6.258;2023-07-28T04:34:33;17.20;99.90
46898;DHT22;32646;50.958;6.258;2023-07-28T04:37:00;17.20;99.90
46898;DHT22;32646;50.958;6.258;2023-07-28T04:39:26;17.30;99.90
46898;DHT22;32646;50.958;6.258;2023-07-28T04:41:53;17.30;99.90
46898;DHT22;32646;50.958;6.258;2023-07-28T04:44:19;17.30;99.90
46898;DHT22;32646;50.958;6.258;2023-07-28T04:46:46;17.20;99.90
46898;DHT22;32646;50.958;6.258;2023-07-28T04:49:13;17.30;99.90
46898;DHT22;32646;50.958;6.258;2023-07-28T04:51:39;17.30;99.90
46898;DHT22;32646;50.958;6.258;2023-07-28T04:54:06;17.30;99.90
46898;DHT22;32646;50.958;6.258;2023-07-28T04:56:33;17.30;99.90
46898;DHT22;32646;50.958;6.258;2023-07-28T04:59:00;17.30;99.90
46898;DHT22;32646;50.958;6.258;2023-07-28T05:01:26;17.30;99.90
46898;DHT22;32646;50.958;6.258;2023-07-28T05:03:53;17.30;99.90
46898;DHT22;32646;50.958;6.258;2023-07-28T05:06:20;17.40;99.90
46898;DHT22;32646;50.958;6.258;2023-07-28T05:08:46;17.30;99.90
46898;DHT22;32646;50.958;6.258;2023-07-28T05:11:13;17.30;99.90
46898;DHT22;32646;50.958;6.258;2023-07-28T05:13:40;17.40;99.90
46898;DHT22;32646;50.958;6.258;2023-07-28T05:16:06;17.40;99.90
46898;DHT22;32646;50.958;6.258;2023-07-28T05:18:33;17.40;99.90
46898;DHT22;32646;50.958;6.258;2023-07-28T05:20:59;17.40;99.90
46898;DHT22;32646;50.958;6.258;2023-07-28T05:23:26;17.40;99.90
46898;DHT22;32646;50.958;6.258;2023-07-28T05:25:53;17.30;99.90
46898;DHT22;32646;50.958;6.258;2023-07-28T05:28:19;17.40;99.90
46898;DHT22;32646;50.958;6.258;2023-07-28T05:30:46;17.40;99.90
46898;DHT22;32646;50.958;6.258;2023-07-28T05:33:12;17.40;99.90
46898;DHT22;32646;50.958;6.258;2023-07-28T05:35:39;17.40;99.90
46898;DHT22;32646;50.958;6.258;2023-07-28T05:38:05;17.50;99.90
46898;DHT22;32646;50.958;6.258;2023-07-28T05:40:32;17.50;99.90
46898;DHT22;32646;50.958;6.258;2023-07-28T05:42:59;17.40;99.90
46898;DHT22;32646;50.958;6.258;2023-07-28T05:45:25;17.40;99.90
46898;DHT22;32646;50.958;6.258;2023-07-28T05:47:52;17.40;99.90
46898;DHT22;32646;50.958;6.258;2023-07-28T05:50:18;17.40;99.90
46898;DHT22;32646;50.958;6.258;2023-07-28T05:52:45;17.40;99.90
46898;DHT22;32646;50.958;6.258;2023-07-28T05:55:12;17.50;99.90
46898;DHT22;32646;50.958;6.258;2023-07-28T05:57:38;17.50;99.90
46898;DHT22;32646;50.958;6.258;2023-07-28T06:00:05;17.50;99.90
46898;DHT22;32646;50.958;6.258;2023-07-28T06:02:32;17.50;99.90
46898;DHT22;32646;50.958;6.258;2023-07-28T06:04:59;17.50;99.90
46898;DHT22;32646;50.958;6.258;2023-07-28T06:07:25;17.60;99.90
46898;DHT22;32646;50.958;6.258;2023-07-28T06:09:52;17.60;99.90
46898;DHT22;32646;50.958;6.258;2023-07-28T06:12:18;17.60;99.90
46898;DHT22;32646;50.958;6.258;2023-07-28T06:14:45;17.60;99.90
46898;DHT22;32646;50.958;6.258;2023-07-28T06:17:11;17.70;99.90
46898;DHT22;32646;50.958;6.258;2023-07-28T06:19:38;17.60;99.90
46898;DHT22;32646;50.958;6.258;2023-07-28T06:22:05;17.60;99.90
46898;DHT22;32646;50.958;6.258;2023-07-28T06:24:31;17.70;99.90
46898;DHT22;32646;50.958;6.258;2023-07-28T06:26:58;17.70;99.90
46898;DHT22;32646;50.958;6.258;2023-07-28T06:29:24;17.70;99.90
46898;DHT22;32646;50.958;6.258;2023-07-28T06:31:51;17.70;99.90
46898;DHT22;32646;50.958;6.258;2023-07-28T06:34:18;17.70;99.90
46898;DHT22;32646;50.958;6.258;2023-07-28T06:36:44;17.70;99.90
46898;DHT22;32646;50.958;6.258;2023-07-28T06:39:11;17.80;99.90
46898;DHT22;32646;50.958;6.258;2023-07-28T06:41:37;17.80;99.90
46898;DHT22;32646;50.958;6.258;2023-07-28T06:44:04;17.90;99.90
46898;DHT22;32646;50.958;6.258;2023-07-28T06:46:30;17.90;99.90
46898;DHT22;32646;50.958;6.258;2023-07-28T06:48:57;17.90;99.90
46898;DHT22;32646;50.958;6.258;2023-07-28T06:51:24;18.00;99.90
46898;DHT22;32646;50.958;6.258;2023-07-28T06:53:51;18.00;99.90
46898;DHT22;32646;50.958;6.258;2023-07-28T06:56:18;18.00;99.90
46898;DHT22;32646;50.958;6.258;2023-07-28T06:58:44;18.00;99.90
46898;DHT22;32646;50.958;6.258;2023-07-28T07:01:26;18.10;99.90
46898;DHT22;32646;50.958;6.258;2023-07-28T07:03:53;18.00;99.90
46898;DHT22;32646;50.958;6.258;2023-07-28T07:06:19;18.10;99.90
46898;DHT22;32646;50.958;6.258;2023-07-28T07:08:46;18.10;99.90
46898;DHT22;32646;50.958;6.258;2023-07-28T07:11:12;18.10;99.90
46898;DHT22;32646;50.958;6.258;2023-07-28T07:13:39;18.20;99.90
46898;DHT22;32646;50.958;6.258;2023-07-28T07:16:16;18.20;99.90
46898;DHT22;32646;50.958;6.258;2023-07-28T07:18:51;18.20;99.90
46898;DHT22;32646;50.958;6.258;2023-07-28T07:21:18;18.30;99.90
46898;DHT22;32646;50.958;6.258;2023-07-28T07:23:44;18.40;99.90
46898;DHT22;32646;50.958;6.258;2023-07-28T07:26:11;18.50;99.90
46898;DHT22;32646;50.958;6.258;2023-07-28T07:28:37;18.40;99.90
46898;DHT22;32646;50.958;6.258;2023-07-28T07:31:04;18.40;99.90
46898;DHT22;32646;50.958;6.258;2023-07-28T07:33:31;18.50;99.90
46898;DHT22;32646;50.958;6.258;2023-07-28T07:35:57;18.50;99.90
46898;DHT22;32646;50.958;6.258;2023-07-28T07:38:24;18.50;99.90
46898;DHT22;32646;50.958;6.258;2023-07-28T07:40:50;18.60;99.90
46898;DHT22;32646;50.958;6.258;2023-07-28T07:43:17;18.60;99.90
46898;DHT22;32646;50.958;6.258;2023-07-28T07:45:44;18.60;99.90
46898;DHT22;32646;50.958;6.258;2023-07-28T07:48:11;18.60;99.90
46898;DHT22;32646;50.958;6.258;2023-07-28T07:50:37;18.60;99.90
46898;DHT22;32646;50.958;6.258;2023-07-28T07:53:04;18.60;99.90
46898;DHT22;32646;50.958;6.258;2023-07-28T07:55:30;18.70;99.90
46898;DHT22;32646;50.958;6.258;2023-07-28T07:57:57;18.80;99.90
46898;DHT22;32646;50.958;6.258;2023-07-28T08:00:24;18.80;99.90
46898;DHT22;32646;50.958;6.258;2023-07-28T08:02:51;18.80;99.90
46898;DHT22;32646;50.958;6.258;2023-07-28T08:05:17;19.00;99.90
46898;DHT22;32646;50.958;6.258;2023-07-28T08:07:44;19.20;99.90
46898;DHT22;32646;50.958;6.258;2023-07-28T08:10:10;19.30;99.90
46898;DHT22;32646;50.958;6.258;2023-07-28T08:12:37;19.50;99.90
46898;DHT22;32646;50.958;6.258;2023-07-28T08:15:04;19.50;99.90
46898;DHT22;32646;50.958;6.258;2023-07-28T08:17:31;19.70;99.90
46898;DHT22;32646;50.958;6.258;2023-07-28T08:19:57;20.10;99.90
46898;DHT22;32646;50.958;6.258;2023-07-28T08:22:24;20.50;99.90
46898;DHT22;32646;50.958;6.258;2023-07-28T08:24:52;20.80;99.90
46898;DHT22;32646;50.958;6.258;2023-07-28T08:27:18;21.40;99.90
46898;DHT22;32646;50.958;6.258;2023-07-28T08:29:45;21.60;99.90
46898;DHT22;32646;50.958;6.258;2023-07-28T08:32:11;21.90;99.90
46898;DHT22;32646;50.958;6.258;2023-07-28T08:34:38;22.00;99.90
46898;DHT22;32646;50.958;6.258;2023-07-28T08:37:05;21.80;99.90
46898;DHT22;32646;50.958;6.258;2023-07-28T08:39:32;21.70;99.90
46898;DHT22;32646;50.958;6.258;2023-07-28T08:42:03;21.70;99.90
46898;DHT22;32646;50.958;6.258;2023-07-28T08:44:34;21.60;99.90
46898;DHT22;32646;50.958;6.258;2023-07-28T08:47:02;21.20;99.90
46898;DHT22;32646;50.958;6.258;2023-07-28T08:49:33;20.80;99.90
46898;DHT22;32646;50.958;6.258;2023-07-28T08:52:00;20.40;99.90
46898;DHT22;32646;50.958;6.258;2023-07-28T08:54:27;20.30;99.90
46898;DHT22;32646;50.958;6.258;2023-07-28T08:56:54;20.30;99.90
46898;DHT22;32646;50.958;6.258;2023-07-28T08:59:25;20.40;99.90
46898;DHT22;32646;50.958;6.258;2023-07-28T09:01:53;20.40;99.90
46898;DHT22;32646;50.958;6.258;2023-07-28T09:04:22;20.60;99.90
46898;DHT22;32646;50.958;6.258;2023-07-28T09:06:50;21.00;99.90
46898;DHT22;32646;50.958;6.258;2023-07-28T09:09:21;21.00;99.90
46898;DHT22;32646;50.958;6.258;2023-07-28T09:11:52;21.10;99.90
46898;DHT22;32646;50.958;6.258;2023-07-28T09:14:21;21.30;99.90
46898;DHT22;32646;50.958;6.258;2023-07-28T09:16:48;21.30;99.90
46898;DHT22;32646;50.958;6.258;2023-07-28T09:19:14;21.20;99.90
46898;DHT22;32646;50.958;6.258;2023-07-28T09:21:44;21.10;99.90
46898;DHT22;32646;50.958;6.258;2023-07-28T09:24:11;21.00;99.90
46898;DHT22;32646;50.958;6.258;2023-07-28T09:29:15;20.30;99.90
46898;DHT22;32646;50.958;6.258;2023-07-28T09:31:43;20.00;99.90
46898;DHT22;32646;50.958;6.258;2023-07-28T09:34:11;19.70;99.90
46898;DHT22;32646;50.958;6.258;2023-07-28T09:36:37;19.60;99.90
46898;DHT22;32646;50.958;6.258;2023-07-28T09:39:05;20.00;99.90
46898;DHT22;32646;50.958;6.258;2023-07-28T09:41:34;20.30;99.90
46898;DHT22;32646;50.958;6.258;2023-07-28T09:44:01;20.70;99.90
46898;DHT22;32646;50.958;6.258;2023-07-28T09:46:34;21.30;99.90
46898;DHT22;32646;50.958;6.258;2023-07-28T09:49:04;21.60;99.90
46898;DHT22;32646;50.958;6.258;2023-07-28T09:51:31;21.30;99.90
46898;DHT22;32646;50.958;6.258;2023-07-28T09:54:06;21.10;99.90
46898;DHT22;32646;50.958;6.258;2023-07-28T09:56:38;20.70;99.90
46898;DHT22;32646;50.958;6.258;2023-07-28T09:59:11;20.60;99.90
46898;DHT22;32646;50.958;6.258;2023-07-28T10:01:39;20.70;99.90
46898;DHT22;32646;50.958;6.258;2023-07-28T10:04:06;21.40;99.90
46898;DHT22;32646;50.958;6.258;2023-07-28T10:06:33;22.00;99.90
46898;DHT22;32646;50.958;6.258;2023-07-28T10:09:01;22.40;99.90
46898;DHT22;32646;50.958;6.258;2023-07-28T10:11:27;23.00;99.90
46898;DHT22;32646;50.958;6.258;2023-07-28T10:13:55;23.10;99.90
46898;DHT22;32646;50.958;6.258;2023-07-28T10:16:37;22.70;99.90
46898;DHT22;32646;50.958;6.258;2023-07-28T10:19:04;22.90;99.90
46898;DHT22;32646;50.958;6.258;2023-07-28T10:21:31;22.70;99.90
46898;DHT22;32646;50.958;6.258;2023-07-28T10:23:58;22.60;99.90
46898;DHT22;32646;50.958;6.258;2023-07-28T10:26:35;22.40;99.90
46898;DHT22;32646;50.958;6.258;2023-07-28T10:29:15;22.30;99.90
46898;DHT22;32646;50.958;6.258;2023-07-28T10:31:55;21.90;99.90
46898;DHT22;32646;50.958;6.258;2023-07-28T10:34:22;21.80;99.90
46898;DHT22;32646;50.958;6.258;2023-07-28T10:36:58;21.60;99.90
46898;DHT22;32646;50.958;6.258;2023-07-28T10:39:26;21.50;99.90
46898;DHT22;32646;50.958;6.258;2023-07-28T10:42:07;21.70;99.90
46898;DHT22;32646;50.958;6.258;2023-07-28T10:44:34;22.00;99.90
46898;DHT22;32646;50.958;6.258;2023-07-28T10:47:01;22.40;99.90
46898;DHT22;32646;50.958;6.258;2023-07-28T10:49:28;22.60;99.90
46898;DHT22;32646;50.958;6.258;2023-07-28T10:51:55;22.80;99.90
46898;DHT22;32646;50.958;6.258;2023-07-28T10:54:21;22.90;99.90
46898;DHT22;32646;50.958;6.258;2023-07-28T10:56:48;22.90;99.90
46898;DHT22;32646;50.958;6.258;2023-07-28T10:59:15;23.10;99.90
46898;DHT22;32646;50.958;6.258;2023-07-28T11:01:42;23.20;99.90
46898;DHT22;32646;50.958;6.258;2023-07-28T11:04:20;23.20;99.90
46898;DHT22;32646;50.958;6.258;2023-07-28T11:06:49;23.50;99.90
46898;DHT22;32646;50.958;6.258;2023-07-28T11:09:22;24.00;99.90
46898;DHT22;32646;50.958;6.258;2023-07-28T11:11:51;23.70;99.90
46898;DHT22;32646;50.958;6.258;2023-07-28T11:14:18;23.40;99.90
46898;DHT22;32646;50.958;6.258;2023-07-28T11:16:46;23.20;99.90
46898;DHT22;32646;50.958;6.258;2023-07-28T11:19:13;23.10;99.90
46898;DHT22;32646;50.958;6.258;2023-07-28T11:21:41;22.90;99.90
46898;DHT22;32646;50.958;6.258;2023-07-28T11:24:09;22.60;99.90
46898;DHT22;32646;50.958;6.258;2023-07-28T11:26:37;22.70;99.90
46898;DHT22;32646;50.958;6.258;2023-07-28T11:29:04;23.20;99.90
46898;DHT22;32646;50.958;6.258;2023-07-28T11:31:36;23.10;99.90
46898;DHT22;32646;50.958;6.258;2023-07-28T11:34:04;22.90;99.90
46898;DHT22;32646;50.958;6.258;2023-07-28T11:36:38;23.40;99.90
46898;DHT22;32646;50.958;6.258;2023-07-28T11:39:05;24.00;99.90
46898;DHT22;32646;50.958;6.258;2023-07-28T11:41:33;23.90;99.90
46898;DHT22;32646;50.958;6.258;2023-07-28T11:44:00;23.30;99.90
46898;DHT22;32646;50.958;6.258;2023-07-28T11:46:39;23.00;99.90
46898;DHT22;32646;50.958;6.258;2023-07-28T11:49:18;22.40;99.90
46898;DHT22;32646;50.958;6.258;2023-07-28T11:51:47;22.40;99.90
46898;DHT22;32646;50.958;6.258;2023-07-28T11:54:21;22.50;99.90
46898;DHT22;32646;50.958;6.258;2023-07-28T11:56:53;22.80;99.90
46898;DHT22;32646;50.958;6.258;2023-07-28T11:59:21;23.20;99.90
46898;DHT22;32646;50.958;6.258;2023-07-28T12:04:25;24.20;99.90
46898;DHT22;32646;50.958;6.258;2023-07-28T12:12:13;23.80;99.90
46898;DHT22;32646;50.958;6.258;2023-07-28T12:14:50;23.80;99.90
46898;DHT22;32646;50.958;6.258;2023-07-28T12:17:37;23.80;99.90
46898;DHT22;32646;50.958;6.258;2023-07-28T12:20:08;23.80;99.90
46898;DHT22;32646;50.958;6.258;2023-07-28T12:22:40;23.80;99.90
46898;DHT22;32646;50.958;6.258;2023-07-28T12:25:07;24.00;99.90
46898;DHT22;32646;50.958;6.258;2023-07-28T12:27:34;24.40;99.90
46898;DHT22;32646;50.958;6.258;2023-07-28T12:30:02;24.60;99.90
46898;DHT22;32646;50.958;6.258;2023-07-28T12:32:30;24.50;99.90
46898;DHT22;32646;50.958;6.258;2023-07-28T12:35:02;24.10;99.90
46898;DHT22;32646;50.958;6.258;2023-07-28T12:37:31;24.50;99.90
46898;DHT22;32646;50.958;6.258;2023-07-28T12:40:01;24.30;99.90
46898;DHT22;32646;50.958;6.258;2023-07-28T12:42:30;24.00;99.90
46898;DHT22;32646;50.958;6.258;2023-07-28T12:45:17;23.30;99.90
46898;DHT22;32646;50.958;6.258;2023-07-28T12:47:47;22.80;99.90
46898;DHT22;32646;50.958;6.258;2023-07-28T12:50:24;22.90;99.90
46898;DHT22;32646;50.958;6.258;2023-07-28T12:52:51;23.10;99.90
46898;DHT22;32646;50.958;6.258;2023-07-28T12:55:20;23.40;99.90
46898;DHT22;32646;50.958;6.258;2023-07-28T12:57:47;23.60;99.90
46898;DHT22;32646;50.958;6.258;2023-07-28T13:00:14;23.60;99.90
46898;DHT22;32646;50.958;6.258;2023-07-28T13:02:44;23.40;99.90
46898;DHT22;32646;50.958;6.258;2023-07-28T13:05:12;23.90;99.90
46898;DHT22;32646;50.958;6.258;2023-07-28T13:07:39;24.00;99.90
46898;DHT22;32646;50.958;6.258;2023-07-28T13:10:10;24.20;99.90
46898;DHT22;32646;50.958;6.258;2023-07-28T13:12:56;24.10;99.90
46898;DHT22;32646;50.958;6.258;2023-07-28T13:15:24;24.00;99.90
46898;DHT22;32646;50.958;6.258;2023-07-28T13:17:50;23.90;99.90
46898;DHT22;32646;50.958;6.258;2023-07-28T13:20:17;23.80;99.90
46898;DHT22;32646;50.958;6.258;2023-07-28T13:22:43;23.60;99.90
46898;DHT22;32646;50.958;6.258;2023-07-28T13:25:10;23.70;99.90
46898;DHT22;32646;50.958;6.258;2023-07-28T13:27:36;24.40;99.90
46898;DHT22;32646;50.958;6.258;2023-07-28T13:30:04;24.20;99.90
46898;DHT22;32646;50.958;6.258;2023-07-28T13:32:30;24.00;99.90
46898;DHT22;32646;50.958;6.258;2023-07-28T13:34:57;23.70;99.90
46898;DHT22;32646;50.958;6.258;2023-07-28T13:37:24;23.30;99.90
46898;DHT22;32646;50.958;6.258;2023-07-28T13:39:50;22.90;99.90
46898;DHT22;32646;50.958;6.258;2023-07-28T13:42:17;22.80;99.90
46898;DHT22;32646;50.958;6.258;2023-07-28T13:44:43;23.20;99.90
46898;DHT22;32646;50.958;6.258;2023-07-28T13:47:24;23.80;99.90
46898;DHT22;32646;50.958;6.258;2023-07-28T13:49:50;23.80;99.90
46898;DHT22;32646;50.958;6.258;2023-07-28T13:52:18;24.10;99.90
46898;DHT22;32646;50.958;6.258;2023-07-28T13:54:48;24.20;99.90
46898;DHT22;32646;50.958;6.258;2023-07-28T13:57:17;24.10;99.90
46898;DHT22;32646;50.958;6.258;2023-07-28T13:59:44;24.00;99.90
46898;DHT22;32646;50.958;6.258;2023-07-28T14:02:10;23.80;99.90
46898;DHT22;32646;50.958;6.258;2023-07-28T14:04:37;23.70;99.90
46898;DHT22;32646;50.958;6.258;2023-07-28T14:07:04;23.80;99.90
46898;DHT22;32646;50.958;6.258;2023-07-28T14:09:31;23.90;99.90
46898;DHT22;32646;50.958;6.258;2023-07-28T14:11:57;23.80;99.90
46898;DHT22;32646;50.958;6.258;2023-07-28T14:14:24;23.80;99.90
46898;DHT22;32646;50.958;6.258;2023-07-28T14:16:51;23.70;99.90
46898;DHT22;32646;50.958;6.258;2023-07-28T14:19:17;23.40;99.90
46898;DHT22;32646;50.958;6.258;2023-07-28T14:21:44;23.20;99.90
46898;DHT22;32646;50.958;6.258;2023-07-28T14:24:11;22.80;99.90
46898;DHT22;32646;50.958;6.258;2023-07-28T14:26:38;22.40;99.90
46898;DHT22;32646;50.958;6.258;2023-07-28T14:29:04;21.60;99.90
46898;DHT22;32646;50.958;6.258;2023-07-28T14:31:31;21.00;99.90
46898;DHT22;32646;50.958;6.258;2023-07-28T14:33:58;20.50;99.90
46898;DHT22;32646;50.958;6.258;2023-07-28T14:36:25;20.20;99.90
46898;DHT22;32646;50.958;6.258;2023-07-28T14:38:51;20.10;99.90
46898;DHT22;32646;50.958;6.258;2023-07-28T14:41:18;20.10;99.90
46898;DHT22;32646;50.958;6.258;2023-07-28T14:43:44;20.10;99.90
46898;DHT22;32646;50.958;6.258;2023-07-28T14:46:11;20.30;99.90
46898;DHT22;32646;50.958;6.258;2023-07-28T14:48:38;20.50;99.90
46898;DHT22;32646;50.958;6.258;2023-07-28T14:51:04;20.60;99.90
46898;DHT22;32646;50.958;6.258;2023-07-28T14:53:36;20.60;99.90
46898;DHT22;32646;50.958;6.258;2023-07-28T14:56:04;20.50;99.90
46898;DHT22;32646;50.958;6.258;2023-07-28T14:58:32;20.50;99.90
46898;DHT22;32646;50.958;6.258;2023-07-28T15:00:59;20.90;99.90
46898;DHT22;32646;50.958;6.258;2023-07-28T15:03:28;21.60;99.90
46898;DHT22;32646;50.958;6.258;2023-07-28T15:05:55;22.10;99.90
46898;DHT22;32646;50.958;6.258;2023-07-28T15:08:22;22.40;99.90
46898;DHT22;32646;50.958;6.258;2023-07-28T15:10:49;22.70;99.90
46898;DHT22;32646;50.958;6.258;2023-07-28T15:13:17;22.40;99.90
46898;DHT22;32646;50.958;6.258;2023-07-28T15:15:44;22.30;99.90
46898;DHT22;32646;50.958;6.258;2023-07-28T15:18:10;22.40;99.90
46898;DHT22;32646;50.958;6.258;2023-07-28T15:20:37;22.40;99.90
46898;DHT22;32646;50.958;6.258;2023-07-28T15:23:04;22.70;99.90
46898;DHT22;32646;50.958;6.258;2023-07-28T15:25:30;22.80;99.90
46898;DHT22;32646;50.958;6.258;2023-07-28T15:27:57;22.50;99.90
46898;DHT22;32646;50.958;6.258;2023-07-28T15:30:24;22.20;99.90
46898;DHT22;32646;50.958;6.258;2023-07-28T15:32:51;22.00;99.90
46898;DHT22;32646;50.958;6.258;2023-07-28T15:35:17;21.60;99.90
46898;DHT22;32646;50.958;6.258;2023-07-28T15:37:45;21.40;99.90
46898;DHT22;32646;50.958;6.258;2023-07-28T15:40:11;21.30;99.90
46898;DHT22;32646;50.958;6.258;2023-07-28T15:42:38;21.30;99.90
46898;DHT22;32646;50.958;6.258;2023-07-28T15:45:05;21.20;99.90
46898;DHT22;32646;50.958;6.258;2023-07-28T15:47:32;21.40;99.90